Latest Coastal Weather Observations for Portland Airport

IDS60701

Issued at 9:05 pm CST Thursday 31 July 2014 (issued every 10 minutes, with the page automatically refreshed every 10 minutes)

About coastal observations | Map of coastal stations | Coastal observations for SA | Marine services | Other Formats
Station Details ID: 090171 Name: CASHMORE AIRPORT Lat: -38.31 Lon: 141.47 Height: 80.9 m
Data from the previous 72 hours. | See also: Recent months at Portland Airport
Date/Time
CST
Temp

°C
Wind Pressure Rain
since 9am
mm
Weather Cloud Vis
km
Sea
Height
m
Swell
Dir
 
Speed
knots
Gust
knots
hPa Trend Height
m
Period
s
Dir
31/09:00pm 7.4 W 22 29 1000.4 - 12.4 - Partly cloudy 10 - - - -
31/08:45pm 7.1 WNW 15 27 1000.6 - 12.2 - Partly cloudy 10 - - - -
31/08:35pm 6.4 WNW 14 18 1000.4 - 12.2 - Partly cloudy 10 - - - -
31/08:32pm 6.4 W 15 25 1000.5 - 12.2 - Partly cloudy 10 - - - -
31/08:30pm 6.1 W 17 26 1000.8 - 12.2 - Cloudy 10 - - - -
31/08:19pm 6.7 W 23 34 1001.1 - 12.2 - Partly cloudy 6 - - - -
31/08:00pm 8.3 W 23 33 1000.3 - 12.2 - Partly cloudy 10 - - - -
31/07:30pm 7.2 WSW 25 39 999.7 - 12.2 - Partly cloudy 10 - - - -
31/07:00pm 9.1 W 24 35 998.9 - 12.2 - Partly cloudy 10 - - - -
31/06:30pm 9.2 W 22 33 998.5 - 12.2 - Partly cloudy 10 - - - -
31/06:02pm 9.1 W 23 33 998.0 - 12.2 - Partly cloudy 10 - - - -
31/06:00pm 8.9 W 23 31 998.0 - 12.2 - Partly cloudy 10 - - - -
31/05:30pm 8.8 W 28 39 997.9 - 12.0 - Cloudy 10 - - - -
31/05:26pm 8.7 W 27 36 997.5 - 12.0 - Partly cloudy 10 - - - -
31/05:10pm 7.2 W 25 39 997.6 - 12.0 - Partly cloudy 6 - - - -
31/05:00pm 9.1 W 29 40 997.2 - 11.6 - Partly cloudy 10 - - - -
31/04:52pm 9.1 W 24 36 997.0 - 11.6 - Partly cloudy 10 - - - -
31/04:30pm 8.8 W 26 35 997.0 - 11.6 - Partly cloudy 10 - - - -
31/04:22pm 8.7 W 23 35 996.8 - 11.6 - Partly cloudy 10 - - - -
31/04:20pm 8.7 W 22 29 996.9 - 11.6 - Partly cloudy 10 - - - -
31/04:00pm 7.7 W 29 41 996.3 - 11.4 - Partly cloudy 5 - - - -
31/03:30pm 10.1 W 27 40 996.2 - 11.0 - Partly cloudy 10 - - - -
31/03:00pm 10.3 W 27 41 995.7 - 11.0 - Partly cloudy 10 - - - -
31/02:50pm 10.0 W 22 32 995.6 - 11.0 - Partly cloudy 10 - - - -
31/02:41pm 9.3 WNW 22 30 995.8 - 11.0 - Partly cloudy 10 - - - -
31/02:30pm 8.0 W 29 42 995.9 - 11.0 - Cloudy 5 - - - -
31/02:19pm 8.4 WNW 26 43 995.7 - 10.6 - Partly cloudy 6 - - - -
31/02:00pm 9.9 W 26 42 995.3 - 10.6 - Partly cloudy 10 - - - -
31/01:30pm 10.2 W 28 45 994.6 - 10.6 - Partly cloudy 10 - - - -
31/01:00pm 10.2 W 32 53 995.1 - 10.6 - Partly cloudy 10 - - - -
31/12:54pm 10.1 W 30 53 994.8 - 10.4 - Partly cloudy 10 - - - -
31/12:47pm 9.8 W 29 42 995.0 - 10.4 - Partly cloudy 10 - - - -
31/12:30pm 8.2 W 30 43 995.2 - 10.4 - Partly cloudy 6 - - - -
31/12:15pm 8.9 W 29 39 995.4 - 10.2 - Partly cloudy 10 - - - -
31/12:00pm 8.4 W 32 48 995.4 - 10.2 - Partly cloudy 5 - - - -
31/11:55am 7.9 W 35 48 995.1 - 10.2 - Partly cloudy 5 - - - -
31/11:51am 8.8 W 34 44 995.2 - 10.0 - Partly cloudy 9 - - - -
31/11:49am 8.8 W 36 44 994.8 - 10.0 - Partly cloudy 10 - - - -
31/11:34am 7.9 W 25 36 995.4 - 9.8 - Partly cloudy 6 - - - -
31/11:32am 7.9 W 26 36 995.5 - 9.8 - Partly cloudy 7 - - - -
31/11:30am 7.8 W 27 37 995.5 - 9.8 - Cloudy 7 - - - -
31/11:11am 8.9 W 30 44 995.1 - 9.6 - Partly cloudy 6 - - - -
31/11:04am 9.3 W 29 41 995.4 - 9.4 - Partly cloudy 10 - - - -
31/11:00am 9.2 W 29 41 995.0 - 9.4 - Partly cloudy 8 - - - -
31/10:51am 8.8 W 30 43 995.2 - 9.4 - Partly cloudy 5 - - - -
31/10:32am 9.3 W 31 45 995.0 - 8.6 - Partly cloudy 4 - - - -
31/10:30am 9.3 W 32 45 994.9 - 8.4 - Partly cloudy 4 - - - -
31/10:21am 9.3 W 30 40 994.1 - 8.0 - Partly cloudy 5 - - - -
31/10:19am 9.2 W 29 40 994.3 - 8.0 - Partly cloudy 4 - - - -
31/10:14am 9.1 W 30 37 994.3 - 7.8 - Partly cloudy 2 - - - -
31/10:07am 10.0 W 19 31 994.5 - 7.2 - Partly cloudy 3 - - - -
31/10:00am 10.1 W 20 27 994.2 - 5.8 - Partly cloudy 5 - - - -
31/09:40am 10.0 W 18 25 994.0 - 4.2 - Partly cloudy 2 - - - -
31/09:30am 9.4 W 24 35 994.0 - 1.8 - Partly cloudy 2 - - - -
31/09:27am 10.6 W 24 35 994.0 - 1.2 - Partly cloudy 3 - - - -
31/09:25am 13.2 W 23 33 993.6 - 0.2 - Partly cloudy 10 - - - -
31/09:00am 12.4 NNW 23 33 992.3 - 0.0 - Partly cloudy 10 - - - -
31/08:30am 12.6 NNW 23 37 993.0 - 0.8 - Cloudy 10 - - - -
31/08:00am 12.2 NNW 22 32 993.2 - 0.8 - Partly cloudy 10 - - - -
31/07:30am 12.2 NNW 22 33 994.3 - 0.8 - Partly cloudy 10 - - - -
31/07:00am 11.9 NNW 19 29 995.0 - 0.8 - Partly cloudy 10 - - - -
31/06:33am 12.0 NNW 19 30 995.4 - 0.8 - Partly cloudy 10 - - - -
31/06:30am 12.1 NNW 19 28 995.4 - 0.8 - Partly cloudy 10 - - - -
31/06:16am 11.9 NNW 18 28 995.7 - 0.8 - Partly cloudy 10 - - - -
31/06:00am 11.6 NNW 18 27 995.8 - 0.8 - Partly cloudy 10 - - - -
31/05:41am 11.7 NNW 17 28 996.2 - 0.8 - Partly cloudy 10 - - - -
31/05:30am 11.6 NNW 17 25 996.7 - 0.8 - Mostly cloudy 10 - - - -
31/05:03am 11.9 NNW 17 28 997.0 - 0.8 - Partly cloudy 9 - - - -
31/05:00am 12.1 NNW 17 24 997.2 - 0.8 - Partly cloudy 10 - - - -
31/04:30am 13.1 NNW 20 35 997.0 - 0.6 - Partly cloudy 10 - - - -
31/04:04am 13.1 NW 20 30 997.8 - 0.6 - Partly cloudy 10 - - - -
31/04:00am 13.1 NW 20 29 997.8 - 0.6 - Partly cloudy 10 - - - -
31/03:31am 13.2 NW 21 33 998.4 - 0.6 - Partly cloudy 10 - - - -
31/03:30am 13.0 NW 20 28 998.5 - 0.6 - Partly cloudy 10 - - - -
31/03:00am 13.0 NW 19 29 999.4 - 0.6 - Cloudy 10 - - - -
31/02:30am 13.2 NW 22 32 1000.1 - 0.6 - Cloudy 10 - - - -
31/02:00am 13.9 NW 21 33 1000.4 - 0.6 - Partly cloudy 10 - - - -
31/01:30am 13.8 NW 20 31 1000.8 - 0.6 - Partly cloudy 10 - - - -
31/01:00am 13.4 NW 18 31 1001.4 - 0.6 - Partly cloudy 10 - - - -
31/12:30am 13.2 NNW 19 30 1001.9 - 0.6 - Partly cloudy 10 - - - -
31/12:00am 13.6 NW 19 32 1002.5 - 0.6 - Partly cloudy 10 - - - -
 
Date/Time
CST
Temp

°C
Wind Pressure Rain
since 9am
mm
Weather Cloud Vis
km
Sea
Height
m
Swell
Dir
 
Speed
knots
Gust
knots
hPa Trend Height
m
Period
s
Dir
30/11:41pm 13.5 NW 19 29 1002.8 - 0.6 - Partly cloudy 10 - - - -
30/11:30pm 13.4 NW 18 27 1003.4 - 0.6 - Cloudy 10 - - - -
30/11:00pm 13.3 NW 19 31 1003.8 - 0.6 - Partly cloudy 10 - - - -
30/10:30pm 13.4 NW 19 30 1004.2 - 0.6 - Partly cloudy 10 - - - -
30/10:01pm 13.6 NW 22 32 1004.7 - 0.6 - Partly cloudy 10 - - - -
30/10:00pm 13.6 NW 21 29 1004.8 - 0.6 - Partly cloudy 10 - - - -
30/09:30pm 13.5 NW 21 31 1005.2 - 0.6 - Cloudy 10 - - - -
30/09:00pm 13.6 NW 21 32 1005.1 - 0.6 - Partly cloudy 10 - - - -
30/08:30pm 13.8 NW 23 33 1005.7 - 0.6 - Cloudy 10 - - - -
30/08:00pm 13.5 NW 21 31 1005.7 - 0.6 - Partly cloudy 10 - - - -
30/07:30pm 14.0 NW 21 31 1005.9 - 0.6 - Partly cloudy 10 - - - -
30/07:00pm 13.8 NW 19 32 1006.2 - 0.6 - Cloudy 10 - - - -
30/06:47pm 13.9 NW 20 30 1006.0 - 0.6 - Partly cloudy 10 - - - -
30/06:30pm 13.4 NW 18 25 1006.3 - 0.6 - Partly cloudy 10 - - - -
30/06:12pm 13.3 NW 18 28 1006.5 - 0.6 - Partly cloudy 10 - - - -
30/06:00pm 13.6 NW 22 29 1006.7 - 0.6 - Partly cloudy 10 - - - -
30/05:30pm 13.7 NW 20 30 1006.7 - 0.6 - Partly cloudy 10 - - - -
30/05:11pm 13.8 NW 20 30 1006.6 - 0.6 - Partly cloudy 10 - - - -
30/05:00pm 14.2 NW 22 30 1006.6 - 0.6 - Partly cloudy 10 - - - -
30/04:30pm 14.5 NW 25 35 1006.5 - 0.6 - Partly cloudy 10 - - - -
30/04:00pm 14.4 NW 20 30 1006.7 - 0.6 - Partly cloudy 10 - - - -
30/03:30pm 14.5 NW 20 30 1006.9 - 0.6 - Partly cloudy 10 - - - -
30/03:00pm 14.9 NW 24 34 1006.7 - 0.6 - Partly cloudy 10 - - - -
30/02:35pm 15.0 WNW 21 34 1007.0 - 0.6 - Partly cloudy 10 - - - -
30/02:30pm 15.0 WNW 21 29 1007.4 - 0.6 - Cloudy 10 - - - -
30/02:04pm 14.9 WNW 21 31 1007.1 - 0.6 - Partly cloudy 10 - - - -
30/02:00pm 15.1 WNW 21 28 1007.2 - 0.6 - Partly cloudy 10 - - - -
30/01:31pm 14.7 WNW 23 34 1007.3 - 0.6 - Partly cloudy 10 - - - -
30/01:30pm 14.8 WNW 23 30 1007.4 - 0.6 - Partly cloudy 10 - - - -
30/01:00pm 15.0 WNW 22 33 1007.8 - 0.6 - Partly cloudy 10 - - - -
30/12:31pm 15.4 WNW 21 31 1008.2 - 0.6 - Partly cloudy 10 - - - -
30/12:30pm 15.3 WNW 22 31 1008.1 - 0.6 - Partly cloudy 10 - - - -
30/12:00pm 14.9 WNW 21 32 1008.7 - 0.6 - Partly cloudy 10 - - - -
30/11:30am 14.4 WNW 22 34 1009.2 - 0.6 - Cloudy 10 - - - -
30/11:10am 14.3 WNW 21 31 1009.1 - 0.6 - Partly cloudy 10 - - - -
30/11:09am 14.2 WNW 21 31 1009.2 - 0.6 - Partly cloudy 10 - - - -
30/11:07am 14.1 WNW 21 29 1009.1 - 0.6 - Partly cloudy 10 - - - -
30/11:00am 13.5 WNW 22 33 1009.4 - 0.6 - Partly cloudy 10 - - - -
30/10:47am 13.4 WNW 22 43 1009.2 - 0.4 - Partly cloudy 3 - - - -
30/10:46am 13.7 WNW 21 31 1009.5 - 0.4 - Partly cloudy 3 - - - -
30/10:38am 14.2 WNW 20 30 1009.6 - 0.2 - Partly cloudy 6 - - - -
30/10:34am 14.2 WNW 20 30 1009.4 - 0.2 - Partly cloudy 8 - - - -
30/10:30am 14.3 WNW 20 28 1009.6 - 0.2 - Partly cloudy 9 - - - -
30/10:00am 14.4 WNW 21 31 1009.5 - 0.2 - Partly cloudy 10 - - - -
30/09:42am 14.3 WNW 22 32 1009.6 - 0.2 - Partly cloudy 10 - - - -
30/09:36am 13.9 WNW 23 32 1009.5 - 0.2 - Partly cloudy 10 - - - -
30/09:30am 13.8 WNW 22 29 1009.6 - 0.2 - Partly cloudy 10 - - - -
30/09:17am 13.1 NW 19 25 1009.6 - 0.2 - Partly cloudy 10 - - - -
30/09:00am 12.9 NW 20 31 1009.7 - 0.2 - Partly cloudy 4 - - - -
30/08:58am 13.0 NW 19 31 1009.7 - 0.2 - Partly cloudy 4 - - - -
30/08:55am 13.0 NW 19 31 1009.5 - 0.0 - Partly cloudy 5 - - - -
30/08:45am 13.1 NW 19 26 1009.8 - 0.0 - Partly cloudy 6 - - - -
30/08:30am 13.1 NW 19 28 1010.0 - 5.0 - Cloudy 10 - - - -
30/08:06am 12.8 NW 18 27 1009.8 - 5.0 - Partly cloudy 10 - - - -
30/08:04am 12.6 NW 17 27 1009.7 - 5.0 - Partly cloudy 10 - - - -
30/08:00am 12.5 NW 17 24 1009.8 - 5.0 - Partly cloudy 10 - - - -
30/07:52am 12.3 NW 17 23 1009.8 - 5.0 - Partly cloudy 6 - - - -
30/07:30am 12.1 NW 17 24 1009.8 - 5.0 - Partly cloudy 10 - - - -
30/07:00am 12.4 NW 17 25 1009.7 - 5.0 - Partly cloudy 10 - - - -
30/06:30am 12.4 NW 18 25 1009.3 - 5.0 - Partly cloudy 10 - - - -
30/06:10am 12.4 NW 16 27 1009.2 - 5.0 - Partly cloudy 10 - - - -
30/06:05am 12.3 NW 15 21 1009.2 - 5.0 - Partly cloudy 10 - - - -
30/06:00am 12.1 NW 14 21 1009.3 - 5.0 - Partly cloudy 10 - - - -
30/05:44am 11.6 NNW 11 15 1009.3 - 5.0 - Partly cloudy 10 - - - -
30/05:30am 11.7 NNW 12 19 1009.4 - 5.0 - Cloudy 10 - - - -
30/05:00am 11.8 NW 14 19 1009.3 - 5.0 - Partly cloudy 10 - - - -
30/04:30am 12.0 NW 15 20 1009.4 - 5.0 - Partly cloudy 10 - - - -
30/04:20am 12.0 NW 14 20 1009.5 - 5.0 - Partly cloudy 10 - - - -
30/04:06am 12.1 NW 13 17 1009.7 - 5.0 - Partly cloudy 6 - - - -
30/04:00am 12.2 WNW 14 20 1009.7 - 4.8 - Partly cloudy 10 - - - -
30/03:33am 12.4 WNW 15 25 1009.5 - 4.8 - Partly cloudy 8 - - - -
30/03:30am 12.2 WNW 15 21 1009.7 - 4.8 - Partly cloudy 8 - - - -
30/03:00am 12.8 WNW 16 21 1009.9 - 4.8 - Partly cloudy 10 - - - -
30/02:47am 12.4 WNW 15 23 1010.0 - 4.8 - Partly cloudy 8 - - - -
30/02:30am 12.4 WNW 17 25 1010.2 - 4.8 - Cloudy 4 - - - -
30/02:27am 12.8 W 17 25 1010.1 - 4.6 - Partly cloudy 5 - - - -
30/02:00am 13.1 WNW 19 25 1010.0 - 3.8 - Partly cloudy 10 - - - -
30/01:30am 12.7 W 20 27 1010.3 - 3.8 - Partly cloudy 10 - - - -
30/01:00am 12.9 W 22 33 1010.3 - 3.8 - Partly cloudy 10 - - - -
30/12:52am 13.0 W 22 33 1010.3 - 3.8 - Partly cloudy 10 - - - -
30/12:30am 13.1 W 23 31 1010.2 - 3.8 - Partly cloudy 10 - - - -
30/12:14am 13.0 W 20 30 1010.1 - 3.8 - Partly cloudy 10 - - - -
30/12:00am 13.0 W 21 29 1010.0 - 3.8 - Partly cloudy 10 - - - -
 
Date/Time
CST
Temp

°C
Wind Pressure Rain
since 9am
mm
Weather Cloud Vis
km
Sea
Height
m
Swell
Dir
 
Speed
knots
Gust
knots
hPa Trend Height
m
Period
s
Dir
29/11:38pm 13.1 W 19 29 1010.0 - 3.8 - Partly cloudy 10 - - - -
29/11:30pm 13.3 W 21 27 1010.0 - 3.8 - Cloudy 10 - - - -
29/11:00pm 13.3 W 20 30 1009.6 - 3.8 - Cloudy 10 - - - -
29/10:47pm 13.2 W 18 28 1009.7 - 3.8 - Partly cloudy 10 - - - -
29/10:30pm 13.2 W 18 23 1009.6 - 3.8 - Partly cloudy 10 - - - -
29/10:11pm 13.3 W 21 28 1009.6 - 3.8 - Partly cloudy 10 - - - -
29/10:05pm 13.2 W 22 28 1009.5 - 3.8 - Partly cloudy 10 - - - -
29/10:00pm 13.1 W 20 28 1009.5 - 3.8 - Partly cloudy 5 - - - -
29/09:49pm 13.2 W 21 30 1009.5 - 3.8 - Partly cloudy 6 - - - -
29/09:41pm 13.3 W 20 30 1009.3 - 3.8 - Partly cloudy 8 - - - -
29/09:30pm 13.7 W 17 24 1009.3 - 3.8 - Partly cloudy 10 - - - -
29/09:00pm 13.3 WNW 19 27 1009.2 - 3.8 - Partly cloudy 10 - - - -
29/08:53pm 13.0 WNW 20 30 1009.1 - 3.8 - Partly cloudy 10 - - - -
29/08:51pm 12.9 WNW 20 30 1009.1 - 3.8 - Partly cloudy 10 - - - -
29/08:45pm 12.9 WNW 22 30 1009.0 - 3.8 - Partly cloudy 10 - - - -
29/08:30pm 13.1 W 20 34 1009.1 - 3.8 - Cloudy 2 - - - -
29/08:29pm 13.2 W 19 34 1008.9 - 3.8 - Partly cloudy 1 - - - -
29/08:17pm 13.6 WNW 18 24 1008.6 - 2.2 - Partly cloudy 6 - - - -
29/08:12pm 13.5 WNW 18 24 1008.6 - 2.2 - Partly cloudy 8 - - - -
29/08:00pm 14.0 WNW 18 25 1008.4 - 2.2 - Partly cloudy 10 - - - -
29/07:30pm 13.8 WNW 21 29 1008.3 - 2.2 - Partly cloudy 10 - - - -
29/07:04pm 13.7 WNW 19 30 1008.2 - 2.2 - Partly cloudy 10 - - - -
29/07:00pm 13.7 WNW 19 28 1008.0 - 2.2 - Partly cloudy 10 - - - -
29/06:59pm 13.6 WNW 18 28 1008.2 - 2.2 - Partly cloudy 10 - - - -
29/06:30pm 13.8 WNW 18 25 1007.7 - 2.2 - Partly cloudy 8 - - - -
29/06:03pm 13.7 WNW 19 29 1007.5 - 2.2 - Partly cloudy 7 - - - -
29/06:00pm 13.7 WNW 19 25 1007.5 - 2.2 - Partly cloudy 7 - - - -
29/05:43pm 13.5 WNW 21 29 1007.5 - 2.2 - Partly cloudy 10 - - - -
29/05:36pm 13.2 WNW 21 31 1007.2 - 2.2 - Partly cloudy 10 - - - -
29/05:33pm 13.1 WNW 21 31 1007.2 - 2.2 - Partly cloudy 10 - - - -
29/05:30pm 13.0 WNW 22 31 1007.4 - 2.2 - Cloudy 10 - - - -
29/05:20pm 13.1 WNW 23 33 1007.0 - 2.2 - Partly cloudy 9 - - - -
29/05:00pm 13.2 WNW 25 40 1006.7 - 2.0 - Partly cloudy 2 - - - -
29/04:54pm 13.8 WNW 23 40 1006.5 - 1.8 - Partly cloudy 3 - - - -
29/04:49pm 14.1 WNW 23 31 1006.0 - 1.6 - Partly cloudy 6 - - - -
29/04:31pm 14.3 WNW 21 31 1005.9 - 1.4 - Partly cloudy 9 - - - -
29/04:30pm 14.3 WNW 22 31 1005.8 - 1.4 - Partly cloudy 9 - - - -
29/04:00pm 14.1 WNW 23 34 1005.6 - 1.4 - Partly cloudy 7 - - - -
29/03:33pm 14.0 WNW 22 33 1005.4 - 1.4 - Partly cloudy 8 - - - -
29/03:30pm 13.9 WNW 23 37 1005.6 - 1.4 - Partly cloudy 8 - - - -
29/03:00pm 13.9 WNW 23 33 1005.3 - 0.4 - Partly cloudy 3 - - - -
29/02:51pm 14.3 WNW 25 41 1005.4 - 0.2 - Partly cloudy 5 - - - -
29/02:30pm 14.7 WNW 25 35 1005.3 - 0.2 - Cloudy 9 - - - -
29/02:00pm 14.7 WNW 23 34 1004.9 - 0.2 - Partly cloudy 9 - - - -
29/01:30pm 14.9 WNW 25 39 1004.7 - 0.2 - Partly cloudy 10 - - - -
29/01:00pm 14.8 WNW 25 37 1004.5 - 0.2 - Partly cloudy 10 - - - -
29/12:30pm 15.1 WNW 23 35 1004.7 - 0.2 - Partly cloudy 9 - - - -
29/12:00pm 14.5 NW 23 33 1005.0 - 0.2 - Cloudy 9 - - - -
29/11:30am 14.4 WNW 24 35 1005.8 - 0.2 - Cloudy 10 - - - -
29/11:00am 14.6 WNW 23 33 1005.4 - 0.2 - Partly cloudy 10 - - - -
29/10:50am 14.3 WNW 23 36 1005.6 - 0.2 - Partly cloudy 10 - - - -
29/10:31am 13.9 WNW 22 32 1005.8 - 0.0 - Partly cloudy 5 - - - -
29/10:30am 14.0 WNW 23 34 1005.8 - 0.0 - Partly cloudy 7 - - - -
29/10:14am 14.0 NW 23 33 1005.4 - 0.0 - Partly cloudy 9 - - - -
29/10:09am 14.1 NW 23 31 1005.4 - 0.0 - Partly cloudy 9 - - - -
29/10:00am 13.9 WNW 22 30 1005.5 - 0.0 - Partly cloudy 7 - - - -
29/09:48am 14.0 WNW 24 34 1005.7 - 0.0 - Partly cloudy 5 - - - -
29/09:47am 14.1 WNW 25 34 1005.6 - 0.0 - Partly cloudy 6 - - - -
29/09:31am 14.6 NW 25 37 1005.4 - 0.0 - Partly cloudy 10 - - - -
29/09:30am 14.6 WNW 25 33 1005.6 - 0.0 - Partly cloudy 10 - - - -
29/09:00am 14.2 NW 24 34 1005.0 - 0.0 - Partly cloudy 10 - - - -
29/08:37am 13.9 NW 24 36 1005.2 - 0.0 - Partly cloudy 10 - - - -
29/08:30am 14.0 NW 24 32 1005.2 - 3.6 - Cloudy 10 - - - -
29/08:04am 13.5 NW 20 32 1004.8 - 3.6 - Partly cloudy 10 - - - -
29/08:01am 13.5 NW 21 28 1004.7 - 3.6 - Partly cloudy 10 - - - -
29/08:00am 13.5 NW 21 28 1004.7 - 3.6 - Partly cloudy 10 - - - -
29/07:37am 13.3 NW 22 32 1004.9 - 3.6 - Partly cloudy 6 - - - -
29/07:30am 13.3 NW 20 30 1005.0 - 3.6 - Partly cloudy 10 - - - -
29/07:29am 13.2 NW 20 30 1005.0 - 3.6 - Partly cloudy 10 - - - -
29/07:26am 13.2 NW 21 29 1005.1 - 3.6 - Partly cloudy 10 - - - -
29/07:00am 13.1 WNW 22 33 1005.2 - 3.6 - Partly cloudy 10 - - - -
29/06:47am 13.0 NW 19 29 1005.5 - 3.4 - Partly cloudy 7 - - - -
29/06:46am 13.0 NW 19 29 1005.5 - 3.4 - Partly cloudy 7 - - - -
29/06:42am 13.1 NW 20 29 1005.3 - 3.4 - Partly cloudy 8 - - - -
29/06:30am 13.0 NW 20 29 1005.0 - 3.4 - Partly cloudy 5 - - - -
29/06:29am 13.0 NW 19 29 1005.2 - 3.2 - Partly cloudy 5 - - - -
29/06:18am 13.1 NW 20 27 1005.0 - 3.0 - Partly cloudy 6 - - - -
29/06:00am 13.1 NW 22 32 1005.0 - 3.0 - Partly cloudy 10 - - - -
29/05:53am 13.1 NW 21 31 1005.0 - 3.0 - Partly cloudy 10 - - - -
29/05:42am 13.1 NW 21 29 1005.0 - 3.0 - Partly cloudy 10 - - - -
29/05:30am 12.9 NW 22 33 1005.2 - 3.0 - Cloudy 10 - - - -
29/05:27am 12.9 NW 22 33 1004.9 - 3.0 - Partly cloudy 10 - - - -
29/05:24am 12.9 NW 23 30 1005.0 - 3.0 - Partly cloudy 10 - - - -
29/05:12am 12.8 NW 20 31 1004.7 - 3.0 - Partly cloudy 10 - - - -
29/05:00am 12.7 NW 19 27 1004.8 - 3.0 - Partly cloudy 10 - - - -
29/04:30am 12.6 NW 21 32 1005.1 - 2.8 - Partly cloudy 10 - - - -
29/04:04am 12.4 NW 19 29 1004.7 - 2.6 - Partly cloudy 9 - - - -
29/04:00am 12.4 NW 19 29 1004.7 - 2.6 - Partly cloudy 9 - - - -
29/03:39am 12.5 NW 19 31 1005.0 - 2.0 - Partly cloudy 6 - - - -
29/03:35am 12.5 NW 18 27 1005.0 - 1.8 - Partly cloudy 10 - - - -
29/03:30am 12.5 NW 18 26 1005.0 - 1.8 - Partly cloudy 8 - - - -
29/03:16am 12.6 NW 19 29 1005.1 - 1.6 - Partly cloudy 6 - - - -
29/03:13am 12.7 NW 20 29 1005.0 - 1.6 - Partly cloudy 6 - - - -
29/03:00am 13.0 NW 18 28 1005.1 - 1.4 - Partly cloudy 10 - - - -
29/02:30am 13.0 NW 19 35 1005.8 - 1.4 - Cloudy 10 - - - -
29/02:00am 12.8 NW 19 30 1005.8 - 1.4 - Partly cloudy 10 - - - -
29/01:56am 12.7 NW 19 30 1005.8 - 1.4 - Partly cloudy 10 - - - -
29/01:30am 12.5 NNW 19 27 1005.9 - 1.4 - Partly cloudy 10 - - - -
29/01:00am 12.5 NNW 18 29 1006.3 - 1.4 - Partly cloudy 10 - - - -
29/12:43am 12.7 NW 18 28 1006.6 - 1.4 - Partly cloudy 10 - - - -
29/12:30am 12.8 NW 19 27 1006.8 - 1.4 - Partly cloudy 10 - - - -
29/12:15am 12.5 NNW 18 28 1006.9 - 1.4 - Partly cloudy 10 - - - -
29/12:00am 12.3 NNW 18 25 1007.2 - 1.4 - Partly cloudy 10 - - - -
 
Date/Time
CST
Temp

°C
Wind Pressure Rain
since 9am
mm
Weather Cloud Vis
km
Sea
Height
m
Swell
Dir
 
Speed
knots
Gust
knots
hPa Trend Height
m
Period
s
Dir
28/11:30pm 12.3 NW 17 30 1007.8 - 1.4 - Mostly clear 10 - - - -
28/11:00pm 12.2 NNW 18 29 1008.0 - 1.4 - Partly cloudy 10 - - - -
28/10:31pm 12.1 NNW 17 27 1008.4 - 1.4 - Partly cloudy 10 - - - -
28/10:30pm 12.1 NNW 18 27 1008.4 - 1.4 - Partly cloudy 10 - - - -
28/10:16pm 12.2 NNW 17 27 1008.8 - 1.4 - Partly cloudy 10 - - - -
28/10:00pm 12.0 NNW 16 23 1009.0 - 1.4 - Partly cloudy 10 - - - -
28/09:30pm 11.9 NNW 16 26 1009.4 - 1.4 - Partly cloudy 10 - - - -
28/09:03pm 12.0 NNW 15 27 1009.4 - 1.4 - Partly cloudy 10 - - - -
28/09:00pm 12.1 NNW 14 22 1009.3 - 1.4 - Partly cloudy 10 - - - -
28/08:47pm 12.1 NNW 13 19 1009.4 - 1.4 - Partly cloudy 10 - - - -

Other Formats:

Comma delimited format used in spreadsheet applications
http://www.bom.gov.au/fwo/IDS60701/IDS60701.94828.axf

JavaScript Object Notation format (JSON) in row-major order
http://www.bom.gov.au/fwo/IDS60701/IDS60701.94828.json